Time;durP1;ratioP1;P1;durP2;ratioP2;P2;SDS_P1;SDS_P2;PMS_P1;PMS_P2;Temp;Humidity;BMP_temperature;BMP_pressure;BME280_temperature;BME280_humidity;BME280_pressure;Samples;Min_cycle;Max_cycle;Signal;HPM_P1;HPM_P2
2023/04/17 00:00:07;;;;;;;0.80;0.80;;;;;;;12.42;62.80;99272.59;4438085;32;34209;-85
2023/04/17 00:02:38;;;;;;;0.70;0.70;;;;;;;12.62;61.93;99267.69;4439471;32;34387;-85
2023/04/17 00:05:09;;;;;;;0.80;0.80;;;;;;;12.55;62.14;99271.38;4440663;32;33699;-86
2023/04/17 00:07:38;;;;;;;1.10;1.02;;;;;;;12.52;62.26;99269.72;4446679;32;33059;-85
2023/04/17 00:10:10;;;;;;;1.37;1.27;;;;;;;12.52;62.26;99271.47;4443322;32;33566;-85
2023/04/17 00:12:39;;;;;;;0.70;0.70;;;;;;;12.64;61.81;99272.88;4443122;32;33858;-86
2023/04/17 00:15:08;;;;;;;0.70;0.70;;;;;;;12.61;61.96;99268.56;4444501;32;34686;-86
2023/04/17 00:17:37;;;;;;;0.82;0.82;;;;;;;12.64;61.83;99263.31;4448264;32;33175;-86
2023/04/17 00:20:09;;;;;;;0.70;0.70;;;;;;;12.59;62.01;99258.22;4443155;32;33799;-87
2023/04/17 00:22:38;;;;;;;0.70;0.70;;;;;;;12.36;62.71;99264.06;4443782;32;32872;-86
2023/04/17 00:25:13;;;;;;;0.70;0.70;;;;;;;12.36;62.95;99265.81;4442809;32;34561;-86
2023/04/17 00:27:42;;;;;;;0.80;0.80;;;;;;;12.67;62.00;99257.16;4441841;32;33850;-85
2023/04/17 00:30:12;;;;;;;0.60;0.60;;;;;;;12.50;62.76;99255.03;4448123;32;33888;-86
2023/04/17 00:32:41;;;;;;;0.85;0.85;;;;;;;12.72;62.02;99265.69;4443364;32;33437;-85
2023/04/17 00:35:10;;;;;;;0.88;0.88;;;;;;;12.83;61.83;99258.44;4442000;32;33091;-86
2023/04/17 00:37:39;;;;;;;0.70;0.70;;;;;;;12.78;61.68;99257.69;4443086;32;33274;-85
2023/04/17 00:40:10;;;;;;;0.80;0.80;;;;;;;12.64;62.15;99262.47;4449213;32;34622;-86
2023/04/17 00:42:40;;;;;;;0.70;0.70;;;;;;;12.71;61.99;99263.97;4445335;32;33019;-86
2023/04/17 00:45:10;;;;;;;0.70;0.70;;;;;;;12.89;61.43;99263.44;4446118;32;33841;-86
2023/04/17 00:47:39;;;;;;;0.80;0.80;;;;;;;12.53;62.37;99254.94;4446810;32;33640;-86
2023/04/17 00:50:09;;;;;;;1.05;0.95;;;;;;;12.40;62.84;99254.44;4441567;32;33420;-85
2023/04/17 00:52:37;;;;;;;1.10;1.10;;;;;;;12.48;62.77;99262.03;4448713;32;33367;-84
2023/04/17 00:55:08;;;;;;;0.70;0.70;;;;;;;12.46;62.82;99256.84;4444991;32;33904;-87
2023/04/17 00:57:37;;;;;;;;;;;;;;;12.55;62.76;99253.16;4446792;32;34459;-85
2023/04/17 01:00:08;;;;;;;0.70;0.70;;;;;;;12.72;62.09;99256.13;4431235;32;34533;-85
2023/04/17 01:02:37;;;;;;;1.70;1.02;;;;;;;12.85;61.39;99258.38;4436124;32;33987;-86
2023/04/17 01:05:07;;;;;;;1.02;0.98;;;;;;;12.76;61.69;99255.16;4433929;32;33461;-85
2023/04/17 01:07:36;;;;;;;0.82;0.82;;;;;;;12.46;63.34;99253.41;4430998;32;33688;-85
2023/04/17 01:10:06;;;;;;;0.88;0.85;;;;;;;12.66;62.72;99251.12;4430698;32;33816;-85
2023/04/17 01:12:39;;;;;;;1.00;0.90;;;;;;;12.82;61.97;99248.91;4435082;32;33687;-85
2023/04/17 01:15:08;;;;;;;0.70;0.70;;;;;;;12.84;62.16;99251.47;4435880;32;33173;-85
2023/04/17 01:17:37;;;;;;;0.82;0.80;;;;;;;12.93;61.79;99253.81;4433223;32;33663;-86
2023/04/17 01:20:09;;;;;;;5.47;0.80;;;;;;;12.86;62.09;99250.53;4434110;32;33864;-86
2023/04/17 01:22:38;;;;;;;0.62;0.62;;;;;;;13.05;61.74;99247.34;4436674;32;33989;-86
2023/04/17 01:25:09;;;;;;;0.95;0.70;;;;;;;12.98;61.78;99247.56;4436142;32;33027;-87
2023/04/17 01:27:39;;;;;;;0.85;0.80;;;;;;;12.70;62.58;99254.47;4438022;32;34036;-86
2023/04/17 01:30:09;;;;;;;0.60;0.60;;;;;;;12.82;61.87;99241.09;4428563;32;34236;-85
2023/04/17 01:32:40;;;;;;;;;;;;;;;12.95;61.22;99239.84;4443689;32;33373;-87
2023/04/17 01:35:09;;;;;;;1.05;1.00;;;;;;;12.85;61.77;99246.19;4434093;32;33965;-85
2023/04/17 01:37:38;;;;;;;0.70;0.70;;;;;;;12.70;62.13;99246.66;4438701;32;33699;-86
2023/04/17 01:40:10;;;;;;;0.70;0.70;;;;;;;12.56;62.84;99236.63;4429365;32;34212;-85
2023/04/17 01:42:39;;;;;;;0.88;0.82;;;;;;;12.51;63.09;99238.50;4428902;32;33943;-85
2023/04/17 01:45:09;;;;;;;0.70;0.70;;;;;;;12.47;63.26;99244.72;4433021;32;34315;-85
2023/04/17 01:47:38;;;;;;;0.80;0.80;;;;;;;12.52;63.22;99246.28;4448150;32;33598;-86
2023/04/17 01:50:08;;;;;;;0.70;0.70;;;;;;;12.60;62.85;99244.31;4443369;32;33883;-86
2023/04/17 01:52:38;;;;;;;0.80;0.80;;;;;;;12.59;63.03;99246.97;4436595;32;33340;-85
2023/04/17 01:55:10;;;;;;;0.93;0.80;;;;;;;12.64;62.93;99242.50;4432916;32;33858;-85
2023/04/17 01:57:38;;;;;;;0.98;0.95;;;;;;;12.54;63.14;99248.84;4435648;32;33552;-86
2023/04/17 02:00:09;;;;;;;0.82;0.82;;;;;;;12.63;63.22;99239.91;4447762;32;32089;-85
2023/04/17 02:02:42;;;;;;;3.40;0.90;;;;;;;12.65;63.20;99235.53;4436664;32;33052;-86
2023/04/17 02:05:12;;;;;;;0.70;0.70;;;;;;;12.71;63.07;99233.59;4444612;32;33953;-86
2023/04/17 02:07:40;;;;;;;0.80;0.80;;;;;;;12.86;62.31;99239.25;4436486;32;34669;-86
2023/04/17 02:10:11;;;;;;;0.70;0.70;;;;;;;12.71;62.83;99237.94;4440277;32;34469;-87
2023/04/17 02:12:40;;;;;;;0.90;0.90;;;;;;;12.65;62.92;99236.38;4434878;32;32928;-86
2023/04/17 02:15:09;;;;;;;0.82;0.80;;;;;;;12.45;63.37;99243.91;4433868;32;33892;-85
2023/04/17 02:17:38;;;;;;;0.62;0.62;;;;;;;12.41;63.79;99244.88;4434445;32;33330;-86
2023/04/17 02:20:12;;;;;;;1.17;0.98;;;;;;;12.54;63.34;99241.91;4435873;32;34335;-87
2023/04/17 02:22:40;;;;;;;0.70;0.70;;;;;;;12.70;62.70;99242.28;4437420;32;33692;-85
2023/04/17 02:25:11;;;;;;;1.00;0.85;;;;;;;12.62;62.82;99244.28;4429024;32;33462;-86
2023/04/17 02:27:39;;;;;;;0.90;0.90;;;;;;;12.73;62.33;99237.03;4430116;32;35245;-84
2023/04/17 02:30:09;;;;;;;0.90;0.90;;;;;;;12.72;62.10;99232.69;4443600;32;33478;-85
2023/04/17 02:32:39;;;;;;;;;;;;;;;12.75;61.96;99243.00;4444933;32;32909;-85
2023/04/17 02:35:09;;;;;;;0.90;0.90;;;;;;;12.41;63.04;99234.47;4429692;32;34665;-85
2023/04/17 02:37:38;;;;;;;0.73;0.73;;;;;;;12.79;61.67;99236.81;4430503;32;33912;-84
2023/04/17 02:40:08;;;;;;;0.70;0.70;;;;;;;12.60;62.15;99233.06;4433324;32;33976;-85
2023/04/17 02:42:39;;;;;;;0.93;0.75;;;;;;;12.57;62.11;99227.94;4430773;32;34054;-85
2023/04/17 02:45:09;;;;;;;0.88;0.80;;;;;;;12.67;61.75;99226.78;4436683;32;34384;-85
2023/04/17 02:47:38;;;;;;;0.70;0.70;;;;;;;12.45;62.45;99223.09;4437162;32;33735;-86
2023/04/17 02:50:09;;;;;;;0.70;0.70;;;;;;;12.77;61.24;99225.59;4446045;32;34173;-86
2023/04/17 02:52:38;;;;;;;0.80;0.80;;;;;;;12.87;61.01;99231.37;4440653;32;33791;-87
2023/04/17 02:55:08;;;;;;;0.70;0.70;;;;;;;12.79;60.95;99221.22;4451198;32;34315;-86
2023/04/17 02:57:39;;;;;;;0.82;0.82;;;;;;;12.81;60.83;99227.22;4448182;32;34641;-86
2023/04/17 03:00:12;;;;;;;0.70;0.70;;;;;;;12.84;60.61;99228.88;4445501;32;34295;-85
2023/04/17 03:02:41;;;;;;;1.75;1.33;;;;;;;12.94;60.60;99234.66;4445751;32;32884;-86
2023/04/17 03:05:13;;;;;;;0.90;0.90;;;;;;;12.91;60.65;99226.97;4445666;32;33797;-85
2023/04/17 03:07:42;;;;;;;0.82;0.82;;;;;;;12.92;60.47;99231.25;4448533;32;34124;-86
2023/04/17 03:10:12;;;;;;;0.60;0.60;;;;;;;12.93;60.53;99239.03;4430501;32;33305;-87
2023/04/17 03:12:42;;;;;;;0.70;0.70;;;;;;;12.94;60.63;99239.87;4443794;32;33209;-85
2023/04/17 03:15:13;;;;;;;2.15;0.80;;;;;;;13.05;60.20;99240.41;4445905;32;34304;-86
2023/04/17 03:17:41;;;;;;;0.90;0.90;;;;;;;12.98;60.76;99242.34;4451483;32;34700;-86
2023/04/17 03:20:11;;;;;;;0.82;0.82;;;;;;;13.10;60.20;99243.72;4444569;32;33369;-85
2023/04/17 03:22:40;;;;;;;1.37;0.80;;;;;;;13.23;60.00;99244.19;4430490;32;32859;-86
2023/04/17 03:25:09;;;;;;;0.90;0.90;;;;;;;13.49;57.49;99240.78;4433243;32;34412;-85
2023/04/17 03:27:39;;;;;;;1.60;1.10;;;;;;;13.43;57.72;99238.37;4429323;32;34231;-86
2023/04/17 03:30:10;;;;;;;0.70;0.70;;;;;;;13.39;58.04;99244.59;4435857;32;34072;-86
2023/04/17 03:32:41;;;;;;;0.70;0.70;;;;;;;13.56;58.20;99247.50;4438054;32;33174;-85
2023/04/17 03:35:09;;;;;;;0.60;0.60;;;;;;;13.66;58.19;99238.47;4437971;32;33491;-86
2023/04/17 03:37:38;;;;;;;0.95;0.80;;;;;;;13.43;58.99;99238.37;4429688;32;33578;-85
2023/04/17 03:40:10;;;;;;;0.88;0.73;;;;;;;13.76;55.69;99249.47;4437400;32;33938;-87
2023/04/17 03:42:39;;;;;;;0.60;0.60;;;;;;;13.85;54.48;99245.72;4434201;32;33682;-85
2023/04/17 03:45:11;;;;;;;0.60;0.60;;;;;;;13.89;54.34;99242.06;4432719;32;34392;-87
2023/04/17 03:47:40;;;;;;;0.65;0.65;;;;;;;13.69;56.09;99247.13;4439123;32;34400;-85
2023/04/17 03:50:10;;;;;;;0.73;0.73;;;;;;;13.58;55.69;99250.94;4432418;32;33866;-85
2023/04/17 03:52:39;;;;;;;0.70;0.70;;;;;;;13.61;54.86;99249.97;4446345;32;33752;-85
2023/04/17 03:55:10;;;;;;;0.77;0.77;;;;;;;13.70;54.51;99247.06;4445359;32;33867;-86
2023/04/17 03:57:39;;;;;;;0.70;0.70;;;;;;;13.60;54.53;99249.13;4431431;32;34271;-85
2023/04/17 04:00:11;;;;;;;0.90;0.90;;;;;;;13.64;54.19;99255.94;4436484;32;34602;-85
2023/04/17 04:02:46;;;;;;;0.70;0.70;;;;;;;13.78;53.70;99249.41;4450215;32;33153;-85
2023/04/17 04:05:16;;;;;;;0.60;0.60;;;;;;;13.87;53.25;99249.13;4439636;32;33967;-86
2023/04/17 04:07:45;;;;;;;0.60;0.60;;;;;;;13.68;54.00;99248.03;4433543;32;34639;-86
2023/04/17 04:10:15;;;;;;;1.35;1.27;;;;;;;13.61;54.26;99263.84;4433542;32;32612;-86
2023/04/17 04:12:44;;;;;;;0.60;0.60;;;;;;;13.68;53.17;99256.69;4443673;32;33232;-86
2023/04/17 04:15:15;;;;;;;1.58;1.05;;;;;;;13.63;53.40;99263.81;4440981;32;33596;-86
2023/04/17 04:17:45;;;;;;;;;;;;;;;13.76;53.25;99257.28;4431120;32;33902;-85
2023/04/17 04:20:13;;;;;;;0.60;0.60;;;;;;;13.87;53.00;99265.59;4428483;32;34674;-86
2023/04/17 04:22:43;;;;;;;0.60;0.60;;;;;;;13.75;53.96;99266.03;4429654;32;33356;-85
2023/04/17 04:25:14;;;;;;;;;;;;;;;13.56;55.18;99264.91;4436088;32;33796;-86
2023/04/17 04:27:48;;;;;;;0.70;0.70;;;;;;;13.62;54.86;99269.91;4431901;32;34108;-86
2023/04/17 04:30:20;;;;;;;1.10;0.95;;;;;;;13.69;54.92;99262.75;4429856;32;34488;-85
2023/04/17 04:32:54;;;;;;;0.70;0.70;;;;;;;13.87;53.63;99272.59;4434246;32;33389;-86
2023/04/17 04:35:24;;;;;;;0.60;0.60;;;;;;;13.82;53.86;99269.25;4429570;32;33101;-86
2023/04/17 04:37:53;;;;;;;0.60;0.60;;;;;;;13.80;53.49;99278.91;4435212;32;35031;-87
2023/04/17 04:40:23;;;;;;;0.65;0.65;;;;;;;14.06;52.20;99278.88;4429778;32;34189;-85
2023/04/17 04:42:52;;;;;;;0.60;0.60;;;;;;;13.98;51.80;99286.09;4429894;32;33689;-87
2023/04/17 04:45:22;;;;;;;0.62;0.62;;;;;;;14.03;51.79;99288.56;4429508;32;33803;-86
2023/04/17 04:47:51;;;;;;;0.68;0.68;;;;;;;14.05;51.14;99290.19;4445866;32;34780;-87
2023/04/17 04:50:20;;;;;;;1.50;0.80;;;;;;;13.71;52.04;99295.69;4441211;32;33665;-87
2023/04/17 04:52:49;;;;;;;0.75;0.75;;;;;;;14.19;50.95;99300.19;4435062;32;34609;-85
2023/04/17 04:55:20;;;;;;;1.02;1.02;;;;;;;14.44;50.15;99299.31;4433614;32;32180;-87
2023/04/17 04:57:52;;;;;;;0.65;0.65;;;;;;;14.56;48.78;99303.28;4431547;32;33694;-85
2023/04/17 05:00:23;;;;;;;0.70;0.70;;;;;;;14.60;48.87;99303.12;4436031;32;33694;-85
2023/04/17 05:02:52;;;;;;;;;;;;;;;14.56;48.74;99308.50;4430663;32;33199;-87
2023/04/17 05:05:24;;;;;;;0.50;0.50;;;;;;;14.69;48.54;99302.81;4429002;32;34558;-87
2023/04/17 05:07:53;;;;;;;0.57;0.57;;;;;;;14.66;48.98;99300.28;4428887;32;34554;-86
2023/04/17 05:10:24;;;;;;;0.50;0.50;;;;;;;14.65;48.77;99305.56;4434172;32;34157;-86
2023/04/17 05:12:53;;;;;;;0.50;0.50;;;;;;;14.72;50.64;99304.44;4439882;32;33287;-85
2023/04/17 05:15:23;;;;;;;0.62;0.62;;;;;;;14.65;50.14;99310.81;4436595;32;34635;-86
2023/04/17 05:17:53;;;;;;;0.50;0.50;;;;;;;14.71;52.18;99298.38;4444092;32;33742;-86
2023/04/17 05:20:22;;;;;;;1.25;1.15;;;;;;;14.48;53.33;99312.22;4431614;32;34411;-86
2023/04/17 05:22:51;;;;;;;0.60;0.60;;;;;;;14.62;53.99;99297.88;4433666;32;33916;-87
2023/04/17 05:25:24;;;;;;;1.83;0.80;;;;;;;14.56;54.39;99304.12;4427660;32;33782;-86
2023/04/17 05:27:53;;;;;;;0.60;0.60;;;;;;;14.70;54.09;99306.25;4438630;32;33884;-86
2023/04/17 05:30:23;;;;;;;0.65;0.60;;;;;;;14.56;54.93;99308.50;4430237;32;33754;-86
2023/04/17 05:32:53;;;;;;;1.08;0.98;;;;;;;14.61;55.18;99306.59;4435679;32;32841;-86
2023/04/17 05:35:23;;;;;;;1.27;0.70;;;;;;;14.60;55.43;99307.50;4436670;32;33554;-85
2023/04/17 05:37:52;;;;;;;2.10;0.70;;;;;;;14.58;55.58;99312.78;4430363;32;34732;-85
2023/04/17 05:40:21;;;;;;;1.00;0.90;;;;;;;14.83;55.22;99307.50;4432671;32;34153;-87
2023/04/17 05:42:50;;;;;;;1.08;0.93;;;;;;;14.84;54.92;99311.00;4441009;32;33269;-86
2023/04/17 05:45:19;;;;;;;0.82;0.70;;;;;;;15.00;53.91;99309.50;4451992;32;34464;-86
2023/04/17 05:47:51;;;;;;;0.55;0.50;;;;;;;14.88;53.10;99313.44;4435367;32;34559;-86
2023/04/17 05:50:21;;;;;;;2.10;1.20;;;;;;;14.90;53.50;99313.34;4436161;32;34414;-87
2023/04/17 05:52:50;;;;;;;0.80;0.80;;;;;;;14.91;54.56;99308.09;4435667;32;33114;-85
2023/04/17 05:55:19;;;;;;;0.60;0.60;;;;;;;14.87;54.87;99313.47;4451810;32;34450;-86
2023/04/17 05:57:50;;;;;;;0.60;0.60;;;;;;;15.41;49.51;99316.66;4441911;32;34822;-88
2023/04/17 06:00:21;;;;;;;0.57;0.57;;;;;;;15.32;49.94;99315.28;4440909;32;33450;-85
2023/04/17 06:02:52;;;;;;;0.60;0.60;;;;;;;15.12;51.84;99322.09;4436605;32;33244;-86
2023/04/17 06:05:23;;;;;;;0.62;0.60;;;;;;;15.57;50.67;99323.84;4437310;32;34546;-87
2023/04/17 06:07:53;;;;;;;0.60;0.60;;;;;;;15.50;50.63;99322.37;4444472;32;34120;-86
2023/04/17 06:10:24;;;;;;;1.90;1.27;;;;;;;15.61;48.27;99319.38;4429719;32;33925;-86
2023/04/17 06:12:53;;;;;;;0.60;0.60;;;;;;;15.71;49.00;99327.72;4443718;32;35815;-86
2023/04/17 06:15:22;;;;;;;0.40;0.40;;;;;;;15.90;49.10;99326.06;4439036;32;33883;-87
2023/04/17 06:17:53;;;;;;;0.57;0.57;;;;;;;16.12;47.91;99323.41;4435588;32;34355;-86
2023/04/17 06:20:22;;;;;;;0.50;0.50;;;;;;;15.94;47.82;99326.78;4437508;32;34261;-86
2023/04/17 06:22:51;;;;;;;0.85;0.70;;;;;;;15.63;46.64;99322.75;4446505;32;33505;-86
2023/04/17 06:25:20;;;;;;;0.50;0.50;;;;;;;16.03;46.33;99330.78;4437956;32;34479;-86
2023/04/17 06:27:49;;;;;;;0.60;0.60;;;;;;;16.11;45.46;99329.53;4430711;32;34802;-88
2023/04/17 06:30:18;;;;;;;0.52;0.50;;;;;;;16.16;45.65;99337.22;4436106;32;34553;-86
2023/04/17 06:32:47;;;;;;;0.60;0.60;;;;;;;15.90;45.79;99339.16;4440265;32;33093;-86
2023/04/17 06:35:20;;;;;;;1.25;1.00;;;;;;;16.00;46.04;99342.25;4438499;32;33105;-86
2023/04/17 06:37:49;;;;;;;0.50;0.50;;;;;;;16.26;45.30;99340.28;4437267;32;33242;-87
2023/04/17 06:40:18;;;;;;;0.50;0.50;;;;;;;15.79;46.18;99336.09;4447867;32;33655;-88
2023/04/17 06:42:47;;;;;;;0.65;0.62;;;;;;;16.02;45.49;99350.00;4433150;32;33970;-86
2023/04/17 06:45:18;;;;;;;0.60;0.60;;;;;;;16.01;45.69;99341.31;4441320;32;33449;-86
2023/04/17 06:47:47;;;;;;;0.40;0.40;;;;;;;15.95;45.14;99344.19;4446269;32;34465;-86
2023/04/17 06:50:17;;;;;;;0.68;0.60;;;;;;;15.95;45.77;99347.66;4433858;32;33593;-86
2023/04/17 06:52:47;;;;;;;0.40;0.40;;;;;;;16.17;44.62;99350.25;4436068;32;33944;-87
2023/04/17 06:55:17;;;;;;;0.60;0.60;;;;;;;16.00;45.10;99355.31;4432248;32;32898;-87
2023/04/17 06:57:48;;;;;;;0.62;0.50;;;;;;;16.11;45.28;99357.47;4433834;32;33572;-87
2023/04/17 07:00:17;;;;;;;0.77;0.75;;;;;;;16.19;44.80;99356.28;4428438;32;34635;-88
2023/04/17 07:02:46;;;;;;;0.50;0.50;;;;;;;16.23;44.33;99363.97;4435248;32;32952;-87
2023/04/17 07:05:16;;;;;;;0.77;0.55;;;;;;;16.28;45.45;99367.25;4437853;32;34513;-87
2023/04/17 07:07:44;;;;;;;1.52;1.00;;;;;;;16.15;44.95;99367.75;4433945;32;34803;-86
2023/04/17 07:10:18;;;;;;;0.40;0.40;;;;;;;16.56;44.15;99365.19;4435078;32;33349;-87
2023/04/17 07:12:46;;;;;;;0.50;0.50;;;;;;;16.97;42.64;99362.53;4432032;32;32965;-87
2023/04/17 07:15:16;;;;;;;0.50;0.50;;;;;;;16.68;43.66;99362.97;4437687;32;33370;-86
2023/04/17 07:17:44;;;;;;;0.68;0.60;;;;;;;16.33;44.51;99355.69;4429545;32;33488;-87
2023/04/17 07:20:13;;;;;;;1.02;0.70;;;;;;;16.98;42.85;99360.78;4432054;32;34435;-87
2023/04/17 07:22:42;;;;;;;0.70;0.52;;;;;;;16.87;42.87;99365.66;4431027;32;33067;-87
2023/04/17 07:25:11;;;;;;;0.55;0.50;;;;;;;16.66;43.72;99352.53;4434083;32;33716;-87
2023/04/17 07:27:41;;;;;;;0.70;0.70;;;;;;;16.68;43.82;99365.56;4429924;32;33274;-89
2023/04/17 07:30:10;;;;;;;0.70;0.70;;;;;;;17.06;43.26;99350.81;4429183;32;32949;-87
2023/04/17 07:32:39;;;;;;;0.37;0.37;;;;;;;17.06;43.34;99356.91;4432039;32;33323;-87
2023/04/17 07:35:08;;;;;;;0.77;0.60;;;;;;;17.38;42.88;99353.72;4435936;32;33754;-87
2023/04/17 07:37:37;;;;;;;0.80;0.77;;;;;;;17.16;42.52;99352.09;4440020;32;34131;-87
2023/04/17 07:40:09;;;;;;;0.50;0.50;;;;;;;17.04;43.68;99355.28;4433657;32;34728;-87
2023/04/17 07:42:38;;;;;;;0.85;0.85;;;;;;;16.78;45.52;99369.50;4436593;32;33584;-87
2023/04/17 07:45:09;;;;;;;0.40;0.40;;;;;;;16.73;45.25;99363.59;4431908;32;33839;-87
2023/04/17 07:47:38;;;;;;;0.47;0.47;;;;;;;16.82;46.21;99377.19;4434870;32;33835;-87
2023/04/17 07:50:08;;;;;;;0.30;0.30;;;;;;;17.28;44.98;99369.03;4440002;32;33829;-87
2023/04/17 07:52:37;;;;;;;0.43;0.43;;;;;;;16.96;45.43;99368.72;4442256;32;34281;-87
2023/04/17 07:55:07;;;;;;;0.68;0.60;;;;;;;16.53;46.46;99380.19;4434699;32;33317;-86
2023/04/17 07:57:36;;;;;;;0.50;0.50;;;;;;;16.75;46.05;99370.47;4443711;32;34014;-86
2023/04/17 08:00:08;;;;;;;0.68;0.68;;;;;;;16.84;46.50;99370.09;4434935;32;34157;-87
2023/04/17 08:02:42;;;;;;;0.85;0.60;;;;;;;17.03;45.63;99370.16;4430254;32;32854;-87
2023/04/17 08:05:11;;;;;;;;;;;;;;;17.41;43.70;99366.69;4430150;32;34619;-86
2023/04/17 08:07:41;;;;;;;0.40;0.40;;;;;;;17.38;44.34;99370.31;4433016;32;34845;-86
2023/04/17 08:10:10;;;;;;;0.62;0.52;;;;;;;17.06;45.48;99375.25;4441523;32;34520;-86
2023/04/17 08:12:40;;;;;;;1.27;0.95;;;;;;;17.35;44.56;99367.84;4442355;32;34047;-86
2023/04/17 08:15:09;;;;;;;0.45;0.40;;;;;;;17.03;44.80;99364.03;4433095;32;33552;-87
2023/04/17 08:17:38;;;;;;;0.50;0.50;;;;;;;17.01;45.54;99366.75;4435320;32;33661;-88
2023/04/17 08:20:12;;;;;;;0.70;0.70;;;;;;;16.83;46.42;99373.63;4441541;32;34016;-86
2023/04/17 08:22:42;;;;;;;0.40;0.40;;;;;;;17.50;44.79;99368.87;4437773;32;32684;-88
2023/04/17 08:25:11;;;;;;;0.70;0.70;;;;;;;17.61;45.22;99369.22;4427238;32;33493;-87
2023/04/17 08:27:41;;;;;;;0.50;0.50;;;;;;;17.47;45.07;99369.03;4429481;32;33522;-87
2023/04/17 08:30:11;;;;;;;0.60;0.60;;;;;;;17.39;45.05;99374.59;4429245;32;33656;-87
2023/04/17 08:32:45;;;;;;;0.50;0.50;;;;;;;17.18;45.62;99365.09;4435508;32;34147;-87
2023/04/17 08:35:20;;;;;;;0.65;0.50;;;;;;;17.23;46.20;99366.63;4434421;32;32639;-88
2023/04/17 08:37:49;;;;;;;0.40;0.40;;;;;;;17.67;45.75;99370.72;4438563;32;33442;-88
2023/04/17 08:40:21;;;;;;;0.60;0.52;;;;;;;17.23;45.91;99368.41;4437476;32;32976;-86
2023/04/17 08:42:52;;;;;;;0.47;0.47;;;;;;;17.24;46.33;99368.31;4438523;32;33768;-87
2023/04/17 08:45:23;;;;;;;0.40;0.40;;;;;;;17.67;46.56;99362.84;4446283;32;33059;-87
2023/04/17 08:47:52;;;;;;;0.45;0.45;;;;;;;17.72;45.60;99367.87;4435247;32;33842;-86
2023/04/17 08:50:23;;;;;;;0.57;0.52;;;;;;;17.85;44.78;99372.47;4430306;32;33057;-87
2023/04/17 08:52:52;;;;;;;0.30;0.30;;;;;;;17.40;45.43;99365.84;4433507;32;33066;-87
2023/04/17 08:55:24;;;;;;;1.30;0.50;;;;;;;17.77;44.99;99371.13;4434890;32;33757;-88
2023/04/17 08:58:00;;;;;;;0.60;0.60;;;;;;;17.79;45.60;99367.50;4431339;32;33757;-87
2023/04/17 09:00:31;;;;;;;0.60;0.50;;;;;;;17.69;45.95;99366.25;4433109;32;33411;-87
2023/04/17 09:03:00;;;;;;;1.62;1.20;;;;;;;18.16;45.01;99365.72;4434918;32;33148;-86
2023/04/17 09:05:33;;;;;;;0.50;0.50;;;;;;;17.89;44.89;99363.53;4430121;32;33002;-86
2023/04/17 09:08:10;;;;;;;0.95;0.60;;;;;;;18.19;44.32;99368.19;4439348;32;34661;-88
2023/04/17 09:10:40;;;;;;;0.52;0.52;;;;;;;18.26;44.46;99358.25;4430862;32;34308;-87
2023/04/17 09:13:11;;;;;;;0.43;0.43;;;;;;;18.12;45.47;99361.56;4432105;32;34165;-87
2023/04/17 09:15:40;;;;;;;0.45;0.45;;;;;;;18.11;44.90;99365.12;4431401;32;34423;-88
2023/04/17 09:18:22;;;;;;;1.30;0.60;;;;;;;18.57;44.58;99362.78;4433265;32;34026;-87
2023/04/17 09:20:53;;;;;;;0.55;0.40;;;;;;;18.44;45.30;99359.13;4432284;32;35790;-88
2023/04/17 09:23:22;;;;;;;0.60;0.50;;;;;;;18.81;44.02;99358.09;4434420;32;32346;-87
2023/04/17 09:26:06;;;;;;;0.30;0.30;;;;;;;18.96;43.56;99359.06;4437710;32;33155;-87
2023/04/17 09:28:38;;;;;;;0.35;0.35;;;;;;;18.79;43.12;99365.19;4445775;32;33965;-88
2023/04/17 09:31:24;;;;;;;0.30;0.30;;;;;;;19.22;42.33;99356.81;4443843;32;34213;-88
2023/04/17 09:33:57;;;;;;;1.35;0.70;;;;;;;18.74;43.15;99365.41;4444615;32;34589;-88
2023/04/17 09:36:29;;;;;;;0.70;0.50;;;;;;;18.13;44.82;99365.88;4432050;32;32743;-86
2023/04/17 09:38:59;;;;;;;0.50;0.50;;;;;;;18.51;43.45;99363.13;4429529;32;33211;-88
2023/04/17 09:41:30;;;;;;;0.30;0.30;;;;;;;17.95;44.94;99365.00;4432145;32;33870;-87
2023/04/17 09:44:04;;;;;;;0.55;0.40;;;;;;;18.40;44.04;99358.41;4428035;32;32769;-87
2023/04/17 09:46:36;;;;;;;0.40;0.40;;;;;;;18.36;44.50;99356.84;4437850;32;34549;-88
2023/04/17 09:49:14;;;;;;;0.82;0.52;;;;;;;18.68;43.95;99351.75;4435131;32;33102;-87
2023/04/17 09:51:48;;;;;;;0.60;0.60;;;;;;;18.37;44.56;99360.34;4442562;32;33192;-87
2023/04/17 09:54:18;;;;;;;0.40;0.40;;;;;;;18.71;43.65;99355.06;4440981;32;33684;-88
2023/04/17 09:56:51;;;;;;;0.50;0.40;;;;;;;18.95;43.29;99349.47;4445659;32;33047;-87
2023/04/17 09:59:20;;;;;;;0.30;0.30;;;;;;;19.15;41.98;99354.50;4451694;32;34771;-89
2023/04/17 10:01:49;;;;;;;0.47;0.47;;;;;;;19.13;42.70;99351.09;4446527;32;34179;-88
2023/04/17 10:04:19;;;;;;;0.20;0.20;;;;;;;19.26;41.34;99348.69;4438240;32;34092;-87
2023/04/17 10:06:49;;;;;;;0.30;0.30;;;;;;;19.14;41.81;99344.94;4444845;32;33726;-88
2023/04/17 10:09:18;;;;;;;0.40;0.40;;;;;;;19.12;42.22;99344.16;4450717;32;32917;-89
2023/04/17 10:11:47;;;;;;;0.37;0.37;;;;;;;18.87;41.58;99342.00;4444858;32;33839;-88
2023/04/17 10:14:21;;;;;;;0.50;0.50;;;;;;;19.05;41.48;99342.78;4445522;32;34052;-87
2023/04/17 10:16:50;;;;;;;0.30;0.30;;;;;;;19.14;41.60;99339.66;4446666;32;34525;-88
2023/04/17 10:19:29;;;;;;;0.45;0.43;;;;;;;19.05;40.72;99336.69;4446345;32;33526;-88
2023/04/17 10:22:31;;;;;;;0.20;0.20;;;;;;;19.21;42.51;99328.81;4451705;32;33508;-87
2023/04/17 10:25:22;;;;;;;0.88;0.43;;;;;;;19.78;40.46;99337.91;4451765;32;34004;-89
2023/04/17 10:27:57;;;;;;;0.20;0.20;;;;;;;19.57;40.43;99331.19;4446241;32;34504;-88
2023/04/17 10:30:49;;;;;;;0.47;0.37;;;;;;;19.63;40.85;99328.22;4446254;32;34944;-89
2023/04/17 10:33:26;;;;;;;0.25;0.25;;;;;;;18.75;41.18;99325.06;4442563;32;33531;-87
2023/04/17 10:35:55;;;;;;;2.65;0.60;;;;;;;19.07;41.47;99327.78;4430532;32;34184;-88
2023/04/17 10:38:35;;;;;;;0.70;0.57;;;;;;;19.79;40.15;99330.87;4434695;32;34685;-90
2023/04/17 10:41:07;;;;;;;0.37;0.37;;;;;;;19.05;41.07;99326.19;4436695;32;34339;-87
2023/04/17 10:43:41;;;;;;;0.35;0.35;;;;;;;19.64;40.35;99329.06;4430323;32;33685;-89
2023/04/17 10:46:11;;;;;;;0.40;0.40;;;;;;;19.24;41.11;99326.88;4429142;32;33183;-87
2023/04/17 10:48:46;;;;;;;0.57;0.57;;;;;;;19.79;41.23;99323.81;4430835;32;33041;-87
2023/04/17 10:51:40;;;;;;;0.35;0.30;;;;;;;20.13;39.40;99339.47;4433170;32;33473;-87
2023/04/17 10:54:14;;;;;;;0.40;0.40;;;;;;;19.47;41.27;99328.22;4435124;32;34180;-88
2023/04/17 10:56:46;;;;;;;0.88;0.50;;;;;;;19.96;40.47;99330.75;4430724;32;33437;-87
2023/04/17 10:59:15;;;;;;;0.45;0.45;;;;;;;19.95;40.65;99323.78;4431466;32;34334;-87
2023/04/17 11:01:59;;;;;;;0.75;0.65;;;;;;;20.16;40.63;99323.47;4437883;32;33233;-88
2023/04/17 11:04:30;;;;;;;0.22;0.22;;;;;;;20.14;40.02;99320.94;4444248;32;34841;-88
2023/04/17 11:07:00;;;;;;;0.55;0.55;;;;;;;19.49;41.68;99323.72;4444861;32;33095;-89
2023/04/17 11:09:30;;;;;;;1.27;0.47;;;;;;;19.55;40.46;99325.19;4431528;32;35904;-88
2023/04/17 11:12:00;;;;;;;0.45;0.40;;;;;;;19.67;40.83;99328.88;4444635;32;33504;-87
2023/04/17 11:14:30;;;;;;;1.10;1.00;;;;;;;19.58;41.71;99325.84;4437403;32;34847;-88
2023/04/17 11:16:59;;;;;;;1.55;0.52;;;;;;;18.91;42.88;99325.13;4442887;32;33339;-88
2023/04/17 11:19:27;;;;;;;0.60;0.50;;;;;;;19.16;42.42;99324.66;4432605;32;32452;-87
2023/04/17 11:21:57;;;;;;;1.00;0.80;;;;;;;19.24;42.18;99323.41;4438323;32;34023;-86
2023/04/17 11:24:27;;;;;;;0.40;0.40;;;;;;;19.55;41.29;99325.19;4437642;32;33265;-89
2023/04/17 11:26:58;;;;;;;0.70;0.70;;;;;;;19.77;40.49;99323.06;4431656;32;33154;-87
2023/04/17 11:29:28;;;;;;;0.40;0.40;;;;;;;19.01;42.03;99320.22;4435793;32;33464;-88
2023/04/17 11:31:57;;;;;;;0.50;0.50;;;;;;;18.98;42.00;99317.75;4430090;32;33706;-87
2023/04/17 11:34:26;;;;;;;0.40;0.40;;;;;;;18.66;42.62;99320.28;4430139;32;34305;-87
2023/04/17 11:36:57;;;;;;;0.20;0.20;;;;;;;18.78;42.47;99320.63;4433971;32;34144;-87
2023/04/17 11:39:29;;;;;;;0.30;0.30;;;;;;;18.90;41.41;99315.53;4437354;32;33420;-88
2023/04/17 11:42:01;;;;;;;0.80;0.50;;;;;;;19.26;40.91;99321.53;4436198;32;33942;-88
2023/04/17 11:44:29;;;;;;;0.70;0.60;;;;;;;19.42;40.76;99324.16;4433409;32;34776;-87
2023/04/17 11:46:58;;;;;;;0.50;0.50;;;;;;;18.87;42.13;99313.09;4429686;32;32950;-88
2023/04/17 11:49:28;;;;;;;0.30;0.30;;;;;;;18.96;41.66;99317.84;4436255;32;33772;-88